createdAt,value
2022-11-01T00:00:14.844Z,20.60
2022-11-01T00:03:17.119Z,28.58
2022-11-01T00:06:19.451Z,21.92
2022-11-01T00:09:21.935Z,26.90
2022-11-01T00:12:24.264Z,24.20
2022-11-01T00:15:26.539Z,25.13
2022-11-01T00:18:28.865Z,24.60
2022-11-01T00:21:31.182Z,29.08
2022-11-01T00:24:33.588Z,24.92
2022-11-01T00:27:35.872Z,36.80
2022-11-01T00:30:39.523Z,25.48
2022-11-01T00:33:41.916Z,27.02
2022-11-01T00:36:44.252Z,26.25
2022-11-01T00:39:46.527Z,29.40
2022-11-01T00:42:48.887Z,31.45
2022-11-01T00:45:54.273Z,27.80
2022-11-01T00:48:56.921Z,34.13
2022-11-01T00:51:59.566Z,32.53
2022-11-01T00:55:01.855Z,30.00
2022-11-01T00:58:04.386Z,27.52
2022-11-01T01:01:07.021Z,27.13
2022-11-01T01:04:09.450Z,25.92
2022-11-01T01:07:11.770Z,27.02
2022-11-01T01:10:14.781Z,26.52
2022-11-01T01:13:17.311Z,23.77
2022-11-01T01:16:19.617Z,31.40
2022-11-01T01:19:21.905Z,30.13
2022-11-01T01:22:24.252Z,28.15
2022-11-01T01:25:26.688Z,30.33
2022-11-01T01:28:29.031Z,24.70
2022-11-01T01:31:31.371Z,28.25
2022-11-01T01:34:33.768Z,29.55
2022-11-01T01:37:36.058Z,25.08
2022-11-01T01:40:38.322Z,34.75
2022-11-01T01:43:44.790Z,33.80
2022-11-01T01:46:48.155Z,34.45
2022-11-01T01:53:11.213Z,32.33
2022-11-01T01:56:20.542Z,31.00
2022-11-01T01:59:22.814Z,29.85
2022-11-01T02:02:25.165Z,26.95
2022-11-01T02:05:35.494Z,30.27
2022-11-01T02:08:40.828Z,30.90
2022-11-01T02:11:43.053Z,22.95
2022-11-01T02:14:45.835Z,25.60
2022-11-01T02:18:05.069Z,21.92
2022-11-01T02:21:13.217Z,22.13
2022-11-01T02:24:30.441Z,22.10
2022-11-01T02:27:45.540Z,25.98
2022-11-01T02:31:16.311Z,33.30
2022-11-01T02:34:33.132Z,28.35
2022-11-01T02:37:43.810Z,34.42
2022-11-01T02:41:16.716Z,31.98
2022-11-01T02:44:25.798Z,31.35
2022-11-01T02:47:30.554Z,27.55
2022-11-01T02:50:53.066Z,26.20
2022-11-01T02:53:55.363Z,36.95
2022-11-01T02:57:00.782Z,35.63
2022-11-01T03:00:21.147Z,34.60
2022-11-01T03:03:26.744Z,26.05
2022-11-01T03:06:40.316Z,26.92
2022-11-01T03:09:43.272Z,23.05
2022-11-01T03:13:32.654Z,30.60
2022-11-01T03:16:42.024Z,26.23
2022-11-01T03:19:53.341Z,22.52
2022-11-01T03:22:57.963Z,22.35
2022-11-01T03:26:01.235Z,25.13
2022-11-01T03:29:07.476Z,26.88
2022-11-01T03:32:10.303Z,26.88
2022-11-01T03:35:20.245Z,27.38
2022-11-01T03:38:26.067Z,26.10
2022-11-01T03:41:30.112Z,28.05
2022-11-01T03:44:39.375Z,25.88
2022-11-01T03:47:41.885Z,31.70
2022-11-01T03:50:48.701Z,29.80
2022-11-01T03:53:50.948Z,23.48
2022-11-01T03:56:53.720Z,32.05
2022-11-01T03:59:55.977Z,30.92
2022-11-01T04:02:59.328Z,26.35
2022-11-01T04:06:01.645Z,21.80
2022-11-01T04:09:05.588Z,24.48
2022-11-01T04:12:07.899Z,29.02
2022-11-01T04:15:29.678Z,26.20
2022-11-01T04:18:50.870Z,22.45
2022-11-01T04:21:53.167Z,21.45
2022-11-01T04:24:55.485Z,23.20
2022-11-01T04:27:57.852Z,42.80
2022-11-01T04:31:00.100Z,24.40
2022-11-01T04:34:04.399Z,50.42
2022-11-01T04:40:09.331Z,28.45
2022-11-01T04:43:12.613Z,29.20
2022-11-01T04:46:15.250Z,24.05
2022-11-01T04:49:17.558Z,28.58
2022-11-01T04:52:20.081Z,28.02
2022-11-01T04:55:22.367Z,23.20
2022-11-01T04:58:24.688Z,30.17
2022-11-01T05:01:27.040Z,30.65
2022-11-01T05:04:29.424Z,43.28
2022-11-01T05:07:31.767Z,26.75
2022-11-01T05:10:35.166Z,30.60
2022-11-01T05:13:37.370Z,24.53
2022-11-01T05:16:39.636Z,30.35
2022-11-01T05:19:41.889Z,27.17
2022-11-01T05:22:44.226Z,21.05
2022-11-01T05:25:46.475Z,23.13
2022-11-01T05:28:48.726Z,24.67
2022-11-01T05:31:50.993Z,20.08
2022-11-01T05:34:53.316Z,20.75
2022-11-01T05:37:56.018Z,24.58
2022-11-01T05:40:58.452Z,16.73
2022-11-01T05:44:00.779Z,17.88
2022-11-01T05:47:04.665Z,15.70
2022-11-01T05:50:13.985Z,19.98
2022-11-01T05:53:16.235Z,18.77
2022-11-01T05:56:19.145Z,15.43
2022-11-01T05:59:21.404Z,13.77
2022-11-01T06:02:23.936Z,12.38
2022-11-01T06:05:27.800Z,13.63
2022-11-01T06:08:31.052Z,14.35
2022-11-01T06:11:35.657Z,13.18
2022-11-01T06:14:41.459Z,16.90
2022-11-01T06:17:43.698Z,16.30
2022-11-01T06:20:45.950Z,20.08
2022-11-01T06:23:50.703Z,22.88
2022-11-01T06:26:52.933Z,23.27
2022-11-01T06:29:55.448Z,25.45
2022-11-01T06:33:01.626Z,24.60
2022-11-01T06:36:05.033Z,38.28
2022-11-01T06:39:07.398Z,36.88
2022-11-01T06:42:10.156Z,20.95
2022-11-01T06:45:12.530Z,20.35
2022-11-01T06:48:14.902Z,32.00
2022-11-01T06:51:17.143Z,27.10
2022-11-01T06:54:19.550Z,25.30
2022-11-01T06:57:21.994Z,24.45
2022-11-01T07:00:25.159Z,26.27
2022-11-01T07:03:27.436Z,19.67
2022-11-01T07:06:31.117Z,16.17
2022-11-01T07:09:35.856Z,13.40
2022-11-01T07:12:38.231Z,19.00
2022-11-01T07:15:41.279Z,13.25
2022-11-01T07:18:44.583Z,14.73
2022-11-01T07:21:46.885Z,13.75
2022-11-01T07:24:49.138Z,17.45
2022-11-01T07:27:51.430Z,32.08
2022-11-01T07:30:54.999Z,27.63
2022-11-01T07:33:57.249Z,29.58
2022-11-01T07:36:59.596Z,34.88
2022-11-01T07:40:03.364Z,27.65
2022-11-01T07:43:06.935Z,38.45
2022-11-01T07:46:09.596Z,53.17
2022-11-01T07:49:12.037Z,49.15
2022-11-01T07:52:15.327Z,54.03
2022-11-01T07:55:17.597Z,46.47
2022-11-01T07:58:19.926Z,47.08
2022-11-01T08:01:22.479Z,29.92
2022-11-01T08:04:24.910Z,38.25
2022-11-01T08:07:27.392Z,36.28
2022-11-01T08:10:30.266Z,29.10
2022-11-01T08:13:32.556Z,42.72
2022-11-01T08:16:34.950Z,44.33
2022-11-01T08:19:37.364Z,38.47
2022-11-01T08:22:43.238Z,42.78
2022-11-01T08:25:45.850Z,41.97
2022-11-01T08:28:48.144Z,27.75
2022-11-01T08:31:50.457Z,29.73
2022-11-01T08:34:52.744Z,35.45
2022-11-01T08:37:55.519Z,36.35
2022-11-01T08:40:57.780Z,39.28
2022-11-01T08:44:00.118Z,32.00
2022-11-01T08:47:02.694Z,29.77
2022-11-01T08:50:10.164Z,48.40
2022-11-01T08:53:15.073Z,31.10
2022-11-01T08:56:18.145Z,25.15
2022-11-01T08:59:20.605Z,31.60
2022-11-01T09:02:24.133Z,26.45
2022-11-01T09:05:26.637Z,35.45
2022-11-01T09:08:28.911Z,28.30
2022-11-01T09:11:31.307Z,31.77
2022-11-01T09:14:34.101Z,31.60
2022-11-01T09:17:36.810Z,28.85
2022-11-01T09:20:39.129Z,38.75
2022-11-01T09:23:41.472Z,37.78
2022-11-01T09:26:44.253Z,48.03
2022-11-01T09:29:49.415Z,35.92
2022-11-01T09:32:54.279Z,37.03
2022-11-01T09:35:59.525Z,29.70
2022-11-01T09:39:02.171Z,35.92
2022-11-01T09:42:08.570Z,28.00
2022-11-01T09:45:20.569Z,26.80
2022-11-01T09:48:24.263Z,32.47
2022-11-01T09:51:26.926Z,27.90
2022-11-01T09:54:29.797Z,29.13
2022-11-01T09:57:36.516Z,22.63
2022-11-01T10:00:43.540Z,29.23
2022-11-01T10:04:11.865Z,29.58
2022-11-01T10:07:28.906Z,20.90
2022-11-01T10:11:17.464Z,23.17
2022-11-01T10:14:28.745Z,19.95
2022-11-01T10:17:52.462Z,26.08
2022-11-01T10:20:57.311Z,19.50
2022-11-01T10:24:01.282Z,15.27
2022-11-01T10:27:10.295Z,23.90
2022-11-01T10:30:17.739Z,26.08
2022-11-01T10:33:22.746Z,30.67
2022-11-01T10:36:31.171Z,20.85
2022-11-01T10:39:54.953Z,26.25
2022-11-01T10:42:59.164Z,27.38
2022-11-01T10:46:05.114Z,25.75
2022-11-01T10:49:35.062Z,21.05
2022-11-01T10:52:50.835Z,27.30
2022-11-01T10:55:57.902Z,26.88
2022-11-01T10:59:08.411Z,18.13
2022-11-01T11:02:24.223Z,22.55
2022-11-01T11:05:29.450Z,23.67
2022-11-01T11:08:32.700Z,19.23
2022-11-01T11:11:41.697Z,20.83
2022-11-01T11:14:44.901Z,15.02
2022-11-01T11:17:52.072Z,18.08
2022-11-01T11:21:00.206Z,16.77
2022-11-01T11:24:03.670Z,15.68
2022-11-01T11:27:19.332Z,18.85
2022-11-01T11:30:28.621Z,14.98
2022-11-01T11:33:33.138Z,15.52
2022-11-01T11:36:37.166Z,15.00
2022-11-01T11:40:00.066Z,23.25
2022-11-01T11:43:31.750Z,20.25
2022-11-01T11:46:34.008Z,20.08
2022-11-01T11:49:37.612Z,23.02
2022-11-01T11:52:40.794Z,11.98
2022-11-01T11:56:06.675Z,19.13
2022-11-01T11:59:21.862Z,20.40
2022-11-01T12:02:38.445Z,35.60
2022-11-01T12:05:51.760Z,23.60
2022-11-01T12:08:55.131Z,24.58
2022-11-01T12:11:57.399Z,16.10
2022-11-01T12:15:00.665Z,20.02
2022-11-01T12:18:19.509Z,28.85
2022-11-01T12:21:31.035Z,29.48
2022-11-01T12:24:51.098Z,34.03
2022-11-01T12:28:03.396Z,25.10
2022-11-01T12:31:14.774Z,50.33
2022-11-01T12:34:27.389Z,87.38
2022-11-01T12:37:50.706Z,28.05
2022-11-01T12:40:53.666Z,25.65
2022-11-01T12:44:03.959Z,26.33
2022-11-01T12:47:24.184Z,37.67
2022-11-01T12:50:43.565Z,35.97
2022-11-01T12:54:13.370Z,29.98
2022-11-01T12:57:18.280Z,36.67
2022-11-01T13:00:21.461Z,37.53
2022-11-01T13:03:39.189Z,46.63
2022-11-01T13:06:49.387Z,52.22
2022-11-01T13:10:13.234Z,37.47
2022-11-01T13:13:27.510Z,56.88
2022-11-01T13:16:36.876Z,44.20
2022-11-01T13:20:06.670Z,51.92
2022-11-01T13:23:15.230Z,40.38
2022-11-01T13:26:25.066Z,37.03
2022-11-01T13:29:47.545Z,36.65
2022-11-01T13:32:52.622Z,35.83
2022-11-01T13:36:27.310Z,37.22
2022-11-01T13:39:38.142Z,34.40
2022-11-01T13:43:15.968Z,33.70
2022-11-01T13:46:48.968Z,47.88
2022-11-01T13:49:55.623Z,50.60
2022-11-01T13:53:05.356Z,43.08
2022-11-01T13:56:28.050Z,40.78
2022-11-01T13:59:45.045Z,43.58
2022-11-01T14:02:59.270Z,60.40
2022-11-01T14:06:11.405Z,37.28
2022-11-01T14:09:28.523Z,47.25
2022-11-01T14:12:43.441Z,44.50
2022-11-01T14:16:14.758Z,43.00
2022-11-01T14:19:21.316Z,42.83
2022-11-01T14:22:27.376Z,37.35
2022-11-01T14:25:31.379Z,45.55
2022-11-01T14:28:33.671Z,49.92
2022-11-01T14:31:40.028Z,55.83
2022-11-01T14:34:45.480Z,45.65
2022-11-01T14:37:57.220Z,38.85
2022-11-01T14:41:00.580Z,60.65
2022-11-01T14:44:12.394Z,48.40
2022-11-01T14:47:43.359Z,64.13
2022-11-01T14:50:55.123Z,58.88
2022-11-01T14:54:05.452Z,79.53
2022-11-01T14:57:25.960Z,77.38
2022-11-01T15:00:31.426Z,50.78
2022-11-01T15:03:33.797Z,52.33
2022-11-01T15:06:36.805Z,52.13
2022-11-01T15:09:40.511Z,44.17
2022-11-01T15:13:02.654Z,44.03
2022-11-01T15:16:12.046Z,53.08
2022-11-01T15:19:18.808Z,54.35
2022-11-01T15:22:25.277Z,53.95
2022-11-01T15:25:27.803Z,45.40
2022-11-01T15:28:36.619Z,48.90
2022-11-01T15:31:50.139Z,49.30
2022-11-01T15:34:54.585Z,47.40
2022-11-01T15:37:57.980Z,46.40
2022-11-01T15:41:00.389Z,29.92
2022-11-01T15:44:07.050Z,38.67
2022-11-01T15:47:17.971Z,47.25
2022-11-01T15:50:20.873Z,45.42
2022-11-01T15:53:25.711Z,65.25
2022-11-01T15:56:44.875Z,58.92
2022-11-01T15:59:52.944Z,62.08
2022-11-01T16:03:23.167Z,61.20
2022-11-01T16:06:32.636Z,50.90
2022-11-01T16:09:39.562Z,51.20
2022-11-01T16:12:45.722Z,63.58
2022-11-01T16:16:06.656Z,53.38
2022-11-01T16:19:37.107Z,54.92
2022-11-01T16:22:42.100Z,48.47
2022-11-01T16:25:47.624Z,43.35
2022-11-01T16:28:51.887Z,49.97
2022-11-01T16:32:09.989Z,65.15
2022-11-01T16:35:30.688Z,48.92
2022-11-01T16:38:36.024Z,54.97
2022-11-01T16:41:40.926Z,66.85
2022-11-01T16:44:44.679Z,55.88
2022-11-01T16:47:47.011Z,51.27
2022-11-01T16:50:49.414Z,48.70
2022-11-01T16:53:51.906Z,57.20
2022-11-01T16:56:55.557Z,71.75
2022-11-01T16:59:58.017Z,79.63
2022-11-01T17:03:02.071Z,67.32
2022-11-01T17:09:16.382Z,75.15
2022-11-01T17:12:18.725Z,56.40
2022-11-01T17:15:21.123Z,65.60
2022-11-01T17:18:30.004Z,64.97
2022-11-01T17:21:37.538Z,71.13
2022-11-01T17:24:40.696Z,79.25
2022-11-01T17:27:43.894Z,84.07
2022-11-01T17:30:46.760Z,74.70
2022-11-01T17:33:49.153Z,76.60
2022-11-01T17:36:51.652Z,85.47
2022-11-01T17:39:53.975Z,68.30
2022-11-01T17:42:56.553Z,156.77
2022-11-01T17:45:59.882Z,138.00
2022-11-01T17:49:02.193Z,90.72
2022-11-01T17:52:04.660Z,74.85
2022-11-01T17:55:07.920Z,69.35
2022-11-01T17:58:11.179Z,55.47
2022-11-01T18:01:13.911Z,87.10
2022-11-01T18:04:16.474Z,79.78
2022-11-01T18:07:19.368Z,89.00
2022-11-01T18:10:22.989Z,84.15
2022-11-01T18:13:47.753Z,58.22
2022-11-01T18:20:28.221Z,67.78
2022-11-01T18:23:31.135Z,72.85
2022-11-01T18:26:33.449Z,82.05
2022-11-01T18:29:40.131Z,74.93
2022-11-01T18:32:51.325Z,80.38
2022-11-01T18:35:55.061Z,91.78
2022-11-01T18:39:18.837Z,74.43
2022-11-01T18:42:21.342Z,73.88
2022-11-01T18:45:31.188Z,75.60
2022-11-01T18:51:40.578Z,78.82
2022-11-01T18:54:53.560Z,80.10
2022-11-01T18:57:58.681Z,84.10
2022-11-01T19:01:03.476Z,85.20
2022-11-01T19:04:19.279Z,67.53
2022-11-01T19:07:25.033Z,68.75
2022-11-01T19:10:28.612Z,79.32
2022-11-01T19:13:34.158Z,81.97
2022-11-01T19:16:37.459Z,95.63
2022-11-01T19:19:42.834Z,92.65
2022-11-01T19:22:45.199Z,99.82
2022-11-01T19:25:48.086Z,104.22
2022-11-01T19:28:52.616Z,131.52
2022-11-01T19:31:58.513Z,106.47
2022-11-01T19:35:00.861Z,149.15
2022-11-01T19:38:03.416Z,171.93
2022-11-01T19:41:06.055Z,191.38
2022-11-01T19:44:13.083Z,189.77
2022-11-01T19:47:30.290Z,163.32
2022-11-01T19:50:43.410Z,194.88
2022-11-01T19:53:45.913Z,237.25
2022-11-01T19:56:48.719Z,250.00
2022-11-01T19:59:51.035Z,227.45
2022-11-01T20:02:55.741Z,248.43
2022-11-01T20:05:58.167Z,237.40
2022-11-01T20:09:11.400Z,283.45
2022-11-01T20:12:18.660Z,321.67
2022-11-01T20:15:23.900Z,310.88
2022-11-01T20:18:27.032Z,289.35
2022-11-01T20:21:29.309Z,258.67
2022-11-01T20:24:31.833Z,382.15
2022-11-01T20:27:34.186Z,271.60
2022-11-01T20:30:36.587Z,264.83
2022-11-01T20:33:39.518Z,317.77
2022-11-01T20:36:42.343Z,315.63
2022-11-01T20:39:44.839Z,265.02
2022-11-01T20:42:47.127Z,277.77
2022-11-01T20:45:50.166Z,262.63
2022-11-01T20:48:52.388Z,308.05
2022-11-01T20:51:57.754Z,286.60
2022-11-01T20:55:07.161Z,303.50
2022-11-01T20:58:10.412Z,260.60
2022-11-01T21:01:14.825Z,248.57
2022-11-01T21:04:19.316Z,231.88
2022-11-01T21:10:28.161Z,234.93
2022-11-01T21:13:38.054Z,209.27
2022-11-01T21:16:40.329Z,209.40
2022-11-01T21:19:42.607Z,200.48
2022-11-01T21:22:44.878Z,181.00
2022-11-01T21:25:50.718Z,189.90
2022-11-01T21:28:55.705Z,199.30
2022-11-01T21:31:58.000Z,198.18
2022-11-01T21:35:00.393Z,166.48
2022-11-01T21:38:03.046Z,153.15
2022-11-01T21:41:20.279Z,164.85
2022-11-01T21:44:26.084Z,169.65
2022-11-01T21:47:30.476Z,162.73
2022-11-01T21:50:33.660Z,197.98
2022-11-01T21:53:42.777Z,169.40
2022-11-01T21:56:45.216Z,171.73
2022-11-01T21:59:47.632Z,168.15
2022-11-01T22:02:51.850Z,173.25
2022-11-01T22:05:56.148Z,160.70
2022-11-01T22:09:01.269Z,172.95
2022-11-01T22:12:04.888Z,173.68
2022-11-01T22:15:11.506Z,160.00
2022-11-01T22:18:13.853Z,171.70
2022-11-01T22:21:17.514Z,160.13
2022-11-01T22:24:19.866Z,180.80
2022-11-01T22:27:22.276Z,144.48
2022-11-01T22:30:24.544Z,173.25
2022-11-01T22:33:26.844Z,157.38
2022-11-01T22:36:30.916Z,167.82
2022-11-01T22:39:33.161Z,146.50
2022-11-01T22:42:35.635Z,153.02
2022-11-01T22:45:40.167Z,152.90
2022-11-01T22:48:43.003Z,150.63
2022-11-01T22:51:53.796Z,143.70
2022-11-01T22:55:03.129Z,149.50
2022-11-01T22:58:36.040Z,144.82
2022-11-01T23:01:38.502Z,141.45
2022-11-01T23:04:40.823Z,131.65
2022-11-01T23:07:48.721Z,140.55
2022-11-01T23:10:52.104Z,150.25
2022-11-01T23:14:13.240Z,134.43
2022-11-01T23:17:33.319Z,148.68
2022-11-01T23:20:35.685Z,152.27
2022-11-01T23:23:41.839Z,142.85
2022-11-01T23:26:44.041Z,144.57
2022-11-01T23:29:48.794Z,137.30
2022-11-01T23:32:51.128Z,138.13
2022-11-01T23:35:57.208Z,135.85
2022-11-01T23:39:02.735Z,122.95
2022-11-01T23:42:06.525Z,137.93
2022-11-01T23:45:21.395Z,103.10
2022-11-01T23:48:24.134Z,125.88
2022-11-01T23:51:26.421Z,126.93
2022-11-01T23:54:34.645Z,127.32
2022-11-01T23:57:37.212Z,118.03
